Alamosa, Colorado
Current Conditions -  °F | °C
As of 11:52 PM on Friday 19 Dec 2014 (Local Time) from KALS Reporting Station
Clear Clear  
Wind Chill: -11°   Ceiling: Unl
Heat Index: -11°   Visibility: 10mi
Dew Point: -13°   Wind: 0mph
Humidity: 84%   Direction: NA
Pressure: 30.16"   Gusts: NA
Location:  37.47°N, 105.87°W
Report Text: KALS 200652Z AUTO 00000KT 10SM CLR M11/M13 A3016 RMK AO2 SLP252 T11111133 400171167
Loading
Personal Weather Stations






























Interactive Weather Map New forecast layout! Learn more

10-Day Weather Forecast

Advertisements
Track Severe Weather on mobile